createdAt,value
2018-01-27T00:00:41.772Z,74.90
2018-01-27T00:01:41.760Z,69.10
2018-01-27T00:02:41.716Z,66.40
2018-01-27T00:03:41.688Z,71.60
2018-01-27T00:04:41.657Z,68.00
2018-01-27T00:05:41.628Z,73.80
2018-01-27T00:06:41.596Z,70.00
2018-01-27T00:07:41.824Z,67.50
2018-01-27T00:08:41.538Z,64.10
2018-01-27T00:09:41.505Z,65.90
2018-01-27T00:10:41.478Z,65.90
2018-01-27T00:11:41.446Z,69.60
2018-01-27T00:12:41.430Z,66.70
2018-01-27T00:13:41.395Z,68.40
2018-01-27T00:14:41.360Z,63.20
2018-01-27T00:15:41.336Z,65.10
2018-01-27T00:16:41.304Z,66.20
2018-01-27T00:17:41.273Z,77.60
2018-01-27T00:18:41.243Z,72.80
2018-01-27T00:19:41.566Z,69.00
2018-01-27T00:20:41.183Z,67.60
2018-01-27T00:21:41.149Z,64.40
2018-01-27T00:22:41.134Z,71.90
2018-01-27T00:23:41.100Z,72.20
2018-01-27T00:24:41.064Z,77.20
2018-01-27T00:25:41.034Z,71.00
2018-01-27T00:26:41.001Z,74.90
2018-01-27T00:27:40.975Z,82.20
2018-01-27T00:28:40.947Z,72.70
2018-01-27T00:29:40.918Z,77.40
2018-01-27T00:30:40.889Z,75.00
2018-01-27T00:31:40.857Z,89.10
2018-01-27T00:32:40.844Z,75.20
2018-01-27T00:33:40.799Z,88.50
2018-01-27T00:34:40.770Z,86.00
2018-01-27T00:35:40.744Z,87.70
2018-01-27T00:36:40.712Z,87.40
2018-01-27T00:37:40.978Z,103.90
2018-01-27T00:38:40.654Z,98.60
2018-01-27T00:39:40.622Z,98.70
2018-01-27T00:40:40.586Z,105.80
2018-01-27T00:41:40.559Z,103.50
2018-01-27T00:42:40.531Z,98.10
2018-01-27T00:43:40.507Z,105.20
2018-01-27T00:44:40.475Z,102.30
2018-01-27T00:45:40.444Z,96.10
2018-01-27T00:46:40.418Z,90.50
2018-01-27T00:47:40.390Z,88.70
2018-01-27T00:48:40.357Z,90.30
2018-01-27T00:49:40.626Z,83.20
2018-01-27T00:50:40.298Z,89.30
2018-01-27T00:51:40.268Z,89.50
2018-01-27T00:52:40.234Z,87.90
2018-01-27T00:53:40.207Z,89.40
2018-01-27T00:54:40.173Z,82.30
2018-01-27T00:55:40.445Z,94.00
2018-01-27T00:56:40.119Z,77.20
2018-01-27T00:57:40.088Z,89.10
2018-01-27T00:58:40.057Z,84.60
2018-01-27T00:59:40.037Z,91.00
2018-01-27T01:00:39.994Z,83.00
2018-01-27T01:01:39.976Z,99.10
2018-01-27T01:02:39.946Z,92.20
2018-01-27T01:03:39.910Z,91.40
2018-01-27T01:04:39.879Z,94.00
2018-01-27T01:05:39.848Z,94.00
2018-01-27T01:06:39.824Z,88.80
2018-01-27T01:07:39.789Z,90.90
2018-01-27T01:08:39.762Z,95.60
2018-01-27T01:09:39.739Z,95.90
2018-01-27T01:10:39.700Z,91.70
2018-01-27T01:11:39.668Z,82.60
2018-01-27T01:12:39.644Z,87.30
2018-01-27T01:13:39.869Z,87.30
2018-01-27T01:14:39.589Z,85.30
2018-01-27T01:15:39.556Z,82.20
2018-01-27T01:16:39.522Z,83.00
2018-01-27T01:17:39.492Z,79.80
2018-01-27T01:18:39.469Z,85.40
2018-01-27T01:19:39.443Z,85.30
2018-01-27T01:20:39.402Z,76.40
2018-01-27T01:21:39.379Z,89.60
2018-01-27T01:22:39.353Z,86.70
2018-01-27T01:23:39.314Z,81.70
2018-01-27T01:24:39.290Z,83.10
2018-01-27T01:25:39.560Z,83.50
2018-01-27T01:26:39.232Z,87.30
2018-01-27T01:27:39.197Z,73.80
2018-01-27T01:28:39.169Z,85.80
2018-01-27T01:29:39.148Z,90.60
2018-01-27T01:30:39.111Z,89.40
2018-01-27T01:31:39.081Z,91.30
2018-01-27T01:32:39.048Z,88.60
2018-01-27T01:33:39.023Z,89.20
2018-01-27T01:34:38.991Z,86.00
2018-01-27T01:35:38.964Z,88.10
2018-01-27T01:36:38.927Z,94.20
2018-01-27T01:37:38.895Z,90.30
2018-01-27T01:38:38.866Z,95.70
2018-01-27T01:39:38.837Z,87.10
2018-01-27T01:40:38.813Z,94.80
2018-01-27T01:41:38.782Z,95.40
2018-01-27T01:42:38.745Z,92.90
2018-01-27T01:43:38.720Z,96.60
2018-01-27T01:44:38.691Z,110.60
2018-01-27T01:45:38.667Z,111.20
2018-01-27T01:46:38.637Z,101.80
2018-01-27T01:47:38.911Z,104.60
2018-01-27T01:48:38.571Z,114.10
2018-01-27T01:49:38.545Z,101.70
2018-01-27T01:50:38.513Z,120.50
2018-01-27T01:51:38.486Z,123.50
2018-01-27T01:52:38.454Z,131.30
2018-01-27T01:53:38.723Z,132.70
2018-01-27T01:54:38.395Z,140.80
2018-01-27T01:55:38.362Z,128.70
2018-01-27T01:56:38.334Z,129.20
2018-01-27T01:57:38.310Z,150.80
2018-01-27T01:58:38.273Z,139.80
2018-01-27T01:59:38.551Z,131.50
2018-01-27T02:00:38.217Z,140.80
2018-01-27T02:01:38.191Z,157.30
2018-01-27T02:02:38.164Z,158.80
2018-01-27T02:03:38.139Z,154.80
2018-01-27T02:04:38.092Z,166.20
2018-01-27T02:05:38.069Z,175.60
2018-01-27T02:06:38.041Z,136.10
2018-01-27T02:07:38.020Z,148.30
2018-01-27T02:08:37.978Z,146.60
2018-01-27T02:09:37.950Z,153.20
2018-01-27T02:10:37.917Z,157.60
2018-01-27T02:11:37.888Z,156.90
2018-01-27T02:12:37.866Z,162.70
2018-01-27T02:13:37.828Z,138.00
2018-01-27T02:14:37.798Z,143.50
2018-01-27T02:15:37.766Z,144.40
2018-01-27T02:16:37.739Z,139.70
2018-01-27T02:17:37.967Z,148.70
2018-01-27T02:18:37.679Z,141.90
2018-01-27T02:19:37.653Z,153.20
2018-01-27T02:20:37.618Z,151.10
2018-01-27T02:21:37.589Z,132.00
2018-01-27T02:22:37.561Z,135.40
2018-01-27T02:23:37.532Z,139.10
2018-01-27T02:24:37.499Z,143.10
2018-01-27T02:25:37.467Z,131.00
2018-01-27T02:26:37.445Z,143.00
2018-01-27T02:27:37.409Z,142.90
2018-01-27T02:28:37.394Z,138.20
2018-01-27T02:29:37.362Z,150.40
2018-01-27T02:30:37.322Z,131.10
2018-01-27T02:31:37.301Z,132.00
2018-01-27T02:32:37.265Z,140.10
2018-01-27T02:33:37.235Z,139.60
2018-01-27T02:34:37.229Z,121.50
2018-01-27T02:35:37.479Z,126.30
2018-01-27T02:36:37.143Z,133.60
2018-01-27T02:37:37.115Z,129.60
2018-01-27T02:38:37.086Z,121.30
2018-01-27T02:39:37.064Z,128.40
2018-01-27T02:40:37.028Z,125.20
2018-01-27T02:41:36.994Z,130.70
2018-01-27T02:42:36.967Z,132.00
2018-01-27T02:43:36.939Z,136.30
2018-01-27T02:44:36.910Z,141.50
2018-01-27T02:45:36.885Z,133.90
2018-01-27T02:46:36.849Z,122.80
2018-01-27T02:47:36.820Z,137.30
2018-01-27T02:48:36.794Z,149.80
2018-01-27T02:49:36.762Z,155.80
2018-01-27T02:50:36.735Z,126.30
2018-01-27T02:51:36.703Z,147.90
2018-01-27T02:52:36.664Z,156.00
2018-01-27T02:53:36.639Z,156.50
2018-01-27T02:54:36.611Z,156.90
2018-01-27T02:55:36.575Z,158.00
2018-01-27T02:56:36.551Z,163.00
2018-01-27T02:57:36.519Z,170.70
2018-01-27T02:58:36.492Z,177.00
2018-01-27T02:59:36.462Z,165.60
2018-01-27T03:00:36.433Z,181.70
2018-01-27T03:01:36.397Z,170.20
2018-01-27T03:02:36.377Z,196.80
2018-01-27T03:03:36.340Z,179.20
2018-01-27T03:04:36.661Z,197.20
2018-01-27T03:05:36.286Z,169.20
2018-01-27T03:06:36.250Z,164.00
2018-01-27T03:07:36.227Z,182.40
2018-01-27T03:08:36.193Z,161.60
2018-01-27T03:09:36.164Z,142.80
2018-01-27T03:10:36.980Z,145.30
2018-01-27T03:11:36.100Z,153.20
2018-01-27T03:12:36.072Z,147.80
2018-01-27T03:13:36.050Z,147.70
2018-01-27T03:14:36.017Z,146.40
2018-01-27T03:15:35.982Z,134.60
2018-01-27T03:16:35.955Z,132.20
2018-01-27T03:17:35.928Z,138.80
2018-01-27T03:18:35.899Z,137.10
2018-01-27T03:19:35.865Z,147.70
2018-01-27T03:20:35.838Z,136.20
2018-01-27T03:21:35.801Z,145.90
2018-01-27T03:22:35.776Z,134.50
2018-01-27T03:23:35.753Z,136.40
2018-01-27T03:24:35.715Z,141.00
2018-01-27T03:25:35.687Z,144.30
2018-01-27T03:26:35.655Z,139.90
2018-01-27T03:27:35.628Z,136.20
2018-01-27T03:28:35.602Z,131.40
2018-01-27T03:29:35.568Z,119.70
2018-01-27T03:30:35.541Z,122.10
2018-01-27T03:31:35.514Z,126.70
2018-01-27T03:32:35.479Z,137.50
2018-01-27T03:33:35.752Z,115.30
2018-01-27T03:34:35.417Z,114.20
2018-01-27T03:35:35.396Z,107.40
2018-01-27T03:36:35.356Z,106.00
2018-01-27T03:37:35.333Z,106.40
2018-01-27T03:38:35.298Z,107.10
2018-01-27T03:39:35.521Z,101.70
2018-01-27T03:40:35.242Z,104.00
2018-01-27T03:41:35.212Z,96.60
2018-01-27T03:42:35.179Z,101.80
2018-01-27T03:43:35.151Z,103.20
2018-01-27T03:44:35.126Z,94.20
2018-01-27T03:45:35.391Z,91.20
2018-01-27T03:46:35.069Z,101.40
2018-01-27T03:47:35.031Z,96.70
2018-01-27T03:48:35.006Z,89.00
2018-01-27T03:49:34.970Z,91.90
2018-01-27T03:50:34.957Z,100.50
2018-01-27T03:51:34.919Z,89.10
2018-01-27T03:52:34.894Z,92.70
2018-01-27T03:53:34.851Z,93.50
2018-01-27T03:54:34.818Z,91.80
2018-01-27T03:55:34.792Z,88.60
2018-01-27T03:56:34.766Z,95.30
2018-01-27T03:57:34.735Z,89.80
2018-01-27T03:58:34.706Z,97.50
2018-01-27T03:59:34.678Z,93.50
2018-01-27T04:00:34.649Z,97.60
2018-01-27T04:01:34.617Z,97.40
2018-01-27T04:02:34.584Z,100.00
2018-01-27T04:03:34.557Z,95.00
2018-01-27T04:04:34.526Z,103.10
2018-01-27T04:05:34.494Z,91.50
2018-01-27T04:06:34.478Z,99.90
2018-01-27T04:07:34.440Z,90.90
2018-01-27T04:08:34.407Z,95.70
2018-01-27T04:09:34.376Z,80.50
2018-01-27T04:10:34.347Z,76.80
2018-01-27T04:11:34.316Z,85.10
2018-01-27T04:12:34.292Z,92.00
2018-01-27T04:13:34.263Z,87.30
2018-01-27T04:14:34.226Z,81.70
2018-01-27T04:15:34.204Z,83.60
2018-01-27T04:16:34.173Z,90.60
2018-01-27T04:17:34.142Z,87.70
2018-01-27T04:18:34.117Z,89.10
2018-01-27T04:19:34.088Z,90.00
2018-01-27T04:20:34.348Z,91.50
2018-01-27T04:21:34.023Z,86.00
2018-01-27T04:22:33.999Z,85.90
2018-01-27T04:23:33.968Z,90.60
2018-01-27T04:24:33.931Z,89.40
2018-01-27T04:25:33.898Z,91.30
2018-01-27T04:26:33.880Z,84.20
2018-01-27T04:27:33.842Z,93.40
2018-01-27T04:28:33.818Z,88.40
2018-01-27T04:29:33.792Z,82.00
2018-01-27T04:30:33.754Z,87.30
2018-01-27T04:31:33.724Z,74.00
2018-01-27T04:32:33.704Z,82.00
2018-01-27T04:33:33.668Z,77.10
2018-01-27T04:34:33.644Z,81.20
2018-01-27T04:35:33.611Z,88.20
2018-01-27T04:36:33.576Z,83.50
2018-01-27T04:37:33.543Z,80.80
2018-01-27T04:38:33.521Z,83.70
2018-01-27T04:39:33.507Z,86.00
2018-01-27T04:40:33.457Z,85.10
2018-01-27T04:41:33.428Z,78.30
2018-01-27T04:42:33.394Z,81.40
2018-01-27T04:43:33.619Z,81.70
2018-01-27T04:44:33.347Z,81.30
2018-01-27T04:45:33.317Z,80.70
2018-01-27T04:46:33.276Z,74.00
2018-01-27T04:47:33.254Z,77.00
2018-01-27T04:48:33.229Z,68.30
2018-01-27T04:49:33.202Z,69.40
2018-01-27T04:50:33.164Z,72.90
2018-01-27T04:51:33.139Z,70.60
2018-01-27T04:52:33.100Z,70.00
2018-01-27T04:53:33.076Z,65.40
2018-01-27T04:54:33.054Z,64.20
2018-01-27T04:55:33.818Z,63.90
2018-01-27T04:56:32.984Z,67.80
2018-01-27T04:57:32.954Z,69.30
2018-01-27T04:58:32.924Z,54.60
2018-01-27T04:59:32.896Z,65.30
2018-01-27T05:00:32.873Z,72.20
2018-01-27T05:01:32.839Z,65.10
2018-01-27T05:02:32.816Z,73.50
2018-01-27T05:03:32.788Z,72.30
2018-01-27T05:04:32.754Z,66.30
2018-01-27T05:05:32.719Z,66.70
2018-01-27T05:06:32.687Z,64.20
2018-01-27T05:07:32.657Z,65.80
2018-01-27T05:08:32.635Z,72.10
2018-01-27T05:09:32.610Z,74.40
2018-01-27T05:10:32.575Z,68.70
2018-01-27T05:11:32.547Z,74.50
2018-01-27T05:12:32.519Z,74.70
2018-01-27T05:13:32.486Z,80.70
2018-01-27T05:14:32.466Z,76.40
2018-01-27T05:15:32.426Z,74.90
2018-01-27T05:16:32.401Z,75.00
2018-01-27T05:17:32.364Z,84.60
2018-01-27T05:18:32.338Z,79.30
2018-01-27T05:19:32.308Z,75.80
2018-01-27T05:20:32.279Z,84.10
2018-01-27T05:21:32.260Z,81.70
2018-01-27T05:22:32.222Z,83.10
2018-01-27T05:23:32.189Z,90.40
2018-01-27T05:24:32.164Z,85.30
2018-01-27T05:25:32.140Z,85.30
2018-01-27T05:26:32.100Z,90.30
2018-01-27T05:27:32.069Z,79.10
2018-01-27T05:28:32.047Z,72.30
2018-01-27T05:29:32.017Z,81.60
2018-01-27T05:30:32.005Z,84.80
2018-01-27T05:31:32.269Z,82.50
2018-01-27T05:32:31.929Z,83.60
2018-01-27T05:33:31.892Z,71.00
2018-01-27T05:34:31.871Z,81.40
2018-01-27T05:35:31.847Z,85.40
2018-01-27T05:36:31.806Z,89.00
2018-01-27T05:37:31.776Z,85.60
2018-01-27T05:38:31.744Z,81.60
2018-01-27T05:39:31.718Z,79.20
2018-01-27T05:40:31.696Z,91.40
2018-01-27T05:41:31.664Z,93.80
2018-01-27T05:42:31.635Z,90.60
2018-01-27T05:43:31.601Z,94.40
2018-01-27T05:44:31.574Z,91.20
2018-01-27T05:45:31.547Z,86.80
2018-01-27T05:46:31.525Z,90.90
2018-01-27T05:47:31.491Z,89.50
2018-01-27T05:48:31.704Z,83.00
2018-01-27T05:49:31.426Z,90.50
2018-01-27T05:50:31.401Z,87.30
2018-01-27T05:51:31.372Z,100.60
2018-01-27T05:52:31.339Z,88.80
2018-01-27T05:53:31.302Z,90.80
2018-01-27T05:54:31.277Z,91.70
2018-01-27T05:55:31.251Z,78.80
2018-01-27T05:56:31.220Z,65.00
2018-01-27T05:57:31.194Z,66.00
2018-01-27T05:58:31.158Z,74.70
2018-01-27T05:59:31.133Z,77.00
2018-01-27T06:00:31.405Z,83.50
2018-01-27T06:01:31.072Z,89.60
2018-01-27T06:02:31.051Z,102.80
2018-01-27T06:03:31.016Z,103.60
2018-01-27T06:04:30.981Z,85.80
2018-01-27T06:05:30.950Z,92.80
2018-01-27T06:06:30.931Z,100.20
2018-01-27T06:07:30.896Z,97.30
2018-01-27T06:08:30.866Z,92.10
2018-01-27T06:09:30.835Z,94.50
2018-01-27T06:10:30.806Z,83.00
2018-01-27T06:11:30.773Z,94.30
2018-01-27T06:12:30.752Z,90.00
2018-01-27T06:13:30.725Z,94.90
2018-01-27T06:14:30.687Z,89.20
2018-01-27T06:15:30.654Z,97.40
2018-01-27T06:16:30.635Z,98.90
2018-01-27T06:17:30.604Z,92.20
2018-01-27T06:18:30.572Z,94.10
2018-01-27T06:19:30.543Z,58.20
2018-01-27T06:20:30.508Z,78.50
2018-01-27T06:21:30.482Z,73.00
2018-01-27T06:22:30.458Z,81.10
2018-01-27T06:23:30.432Z,80.20
2018-01-27T06:24:30.391Z,70.00
2018-01-27T06:25:30.365Z,54.80
2018-01-27T06:26:30.330Z,60.70
2018-01-27T06:27:30.312Z,65.00
2018-01-27T06:28:30.282Z,61.50
2018-01-27T06:29:30.543Z,53.80
2018-01-27T06:30:30.218Z,83.30
2018-01-27T06:31:30.185Z,73.60
2018-01-27T06:32:30.157Z,79.60
2018-01-27T06:33:30.130Z,63.40
2018-01-27T06:34:30.096Z,69.60
2018-01-27T06:35:30.371Z,75.40
2018-01-27T06:36:30.038Z,71.90
2018-01-27T06:37:30.007Z,80.80
2018-01-27T06:38:29.981Z,75.60
2018-01-27T06:39:29.953Z,79.90
2018-01-27T06:40:29.929Z,70.80
2018-01-27T06:41:29.887Z,74.50
2018-01-27T06:42:29.858Z,59.40
2018-01-27T06:43:29.829Z,70.60
2018-01-27T06:44:29.802Z,80.50
2018-01-27T06:45:29.774Z,76.60
2018-01-27T06:46:30.093Z,72.50
2018-01-27T06:47:29.706Z,71.00
2018-01-27T06:48:29.680Z,73.70
2018-01-27T06:49:29.663Z,76.20
2018-01-27T06:50:29.623Z,51.20
2018-01-27T06:51:29.599Z,38.90
2018-01-27T06:52:29.560Z,67.70
2018-01-27T06:53:29.533Z,74.60
2018-01-27T06:54:29.506Z,77.40
2018-01-27T06:55:29.477Z,94.50
2018-01-27T06:56:29.441Z,70.40
2018-01-27T06:57:29.425Z,73.50
2018-01-27T06:58:29.381Z,74.10
2018-01-27T06:59:29.353Z,85.10
2018-01-27T07:00:29.332Z,77.20
2018-01-27T07:01:29.294Z,76.60
2018-01-27T07:02:29.270Z,67.90
2018-01-27T07:03:29.236Z,78.50
2018-01-27T07:04:29.218Z,72.10
2018-01-27T07:05:29.181Z,74.90
2018-01-27T07:06:29.151Z,71.60
2018-01-27T07:07:29.134Z,68.90
2018-01-27T07:08:29.091Z,77.20
2018-01-27T07:09:29.054Z,82.10
2018-01-27T07:10:29.029Z,67.00
2018-01-27T07:11:29.008Z,62.90
2018-01-27T07:12:28.980Z,66.50
2018-01-27T07:13:28.943Z,88.40
2018-01-27T07:14:28.914Z,82.50
2018-01-27T07:15:28.892Z,86.80
2018-01-27T07:16:28.857Z,87.10
2018-01-27T07:17:28.822Z,88.60
2018-01-27T07:18:28.804Z,64.80
2018-01-27T07:19:28.763Z,63.50
2018-01-27T07:20:29.032Z,63.40
2018-01-27T07:21:28.704Z,60.10
2018-01-27T07:22:28.680Z,77.90
2018-01-27T07:23:28.646Z,67.20
2018-01-27T07:24:28.621Z,65.90
2018-01-27T07:25:28.590Z,64.80
2018-01-27T07:26:28.565Z,59.70
2018-01-27T07:27:28.528Z,71.00
2018-01-27T07:28:28.502Z,49.70
2018-01-27T07:29:28.478Z,61.30
2018-01-27T07:30:28.438Z,48.80
2018-01-27T07:31:28.415Z,60.10
2018-01-27T07:32:28.375Z,66.60
2018-01-27T07:33:28.347Z,62.60
2018-01-27T07:34:28.333Z,70.00
2018-01-27T07:35:28.293Z,66.40
2018-01-27T07:36:28.259Z,66.40
2018-01-27T07:37:28.237Z,60.60
2018-01-27T07:38:28.505Z,60.50
2018-01-27T07:39:28.181Z,65.60
2018-01-27T07:40:28.149Z,65.70
2018-01-27T07:41:28.118Z,57.70
2018-01-27T07:42:28.085Z,54.60
2018-01-27T07:43:28.074Z,62.60
2018-01-27T07:44:28.033Z,59.10
2018-01-27T07:45:28.001Z,57.10
2018-01-27T07:46:27.975Z,67.20
2018-01-27T07:47:27.942Z,62.30
2018-01-27T07:48:27.913Z,57.60
2018-01-27T07:49:27.888Z,55.10
2018-01-27T07:50:28.107Z,56.30
2018-01-27T07:51:27.821Z,54.40
2018-01-27T07:52:27.790Z,59.80
2018-01-27T07:53:27.760Z,57.90
2018-01-27T07:54:27.733Z,57.60
2018-01-27T07:55:27.704Z,57.90
2018-01-27T07:56:27.978Z,51.60
2018-01-27T07:57:27.651Z,53.10
2018-01-27T07:58:27.612Z,49.80
2018-01-27T07:59:27.584Z,48.90
2018-01-27T08:00:27.559Z,49.80
2018-01-27T08:01:27.530Z,55.00
2018-01-27T08:02:27.503Z,50.20
2018-01-27T08:03:27.474Z,55.90
2018-01-27T08:04:27.448Z,56.90
2018-01-27T08:05:27.410Z,56.60
2018-01-27T08:06:27.381Z,53.40
2018-01-27T08:07:27.361Z,55.70
2018-01-27T08:08:27.335Z,57.50
2018-01-27T08:09:27.297Z,53.80
2018-01-27T08:10:27.258Z,58.60
2018-01-27T08:11:27.235Z,57.90
2018-01-27T08:12:27.204Z,60.10
2018-01-27T08:13:27.180Z,54.30
2018-01-27T08:14:27.448Z,44.00
2018-01-27T08:15:27.119Z,45.10
2018-01-27T08:16:27.097Z,46.40
2018-01-27T08:17:27.071Z,44.20
2018-01-27T08:18:27.033Z,47.20
2018-01-27T08:19:27.008Z,47.90
2018-01-27T08:20:26.968Z,50.00
2018-01-27T08:21:26.943Z,41.00
2018-01-27T08:22:26.919Z,38.30
2018-01-27T08:23:26.889Z,41.50
2018-01-27T08:24:26.858Z,41.20
2018-01-27T08:25:27.776Z,39.60
2018-01-27T08:26:26.798Z,46.20
2018-01-27T08:27:26.775Z,44.20
2018-01-27T08:28:26.739Z,41.30
2018-01-27T08:29:26.716Z,43.90
2018-01-27T08:30:26.680Z,38.20
2018-01-27T08:31:26.951Z,42.20
2018-01-27T08:32:26.621Z,30.30
2018-01-27T08:33:26.596Z,32.60
2018-01-27T08:34:26.568Z,35.40
2018-01-27T08:35:26.543Z,33.80
2018-01-27T08:36:26.506Z,38.90
2018-01-27T08:37:26.481Z,42.50
2018-01-27T08:38:26.457Z,42.40
2018-01-27T08:39:26.422Z,38.20
2018-01-27T08:40:26.396Z,38.60
2018-01-27T08:41:26.356Z,38.70
2018-01-27T08:42:26.335Z,39.50
2018-01-27T08:43:26.305Z,41.00
2018-01-27T08:44:26.277Z,28.40
2018-01-27T08:45:26.251Z,39.90
2018-01-27T08:46:26.216Z,35.60
2018-01-27T08:47:26.190Z,35.00
2018-01-27T08:48:26.165Z,40.00
2018-01-27T08:49:26.438Z,40.80
2018-01-27T08:50:26.103Z,41.50
2018-01-27T08:51:26.071Z,43.00
2018-01-27T08:52:26.050Z,46.90
2018-01-27T08:53:26.009Z,45.30
2018-01-27T08:54:25.988Z,37.30
2018-01-27T08:55:26.207Z,39.90
2018-01-27T08:56:25.931Z,35.40
2018-01-27T08:57:25.895Z,41.90
2018-01-27T08:58:25.864Z,35.10
2018-01-27T08:59:25.833Z,40.60
2018-01-27T09:00:25.814Z,36.20
2018-01-27T09:01:25.782Z,36.90
2018-01-27T09:02:25.747Z,45.10
2018-01-27T09:03:25.719Z,43.00
2018-01-27T09:04:25.699Z,34.70
2018-01-27T09:05:25.727Z,38.60
2018-01-27T09:06:25.641Z,45.10
2018-01-27T09:07:25.614Z,43.00
2018-01-27T09:08:25.576Z,43.80
2018-01-27T09:09:25.573Z,43.50
2018-01-27T09:10:25.517Z,44.50
2018-01-27T09:11:25.492Z,50.30
2018-01-27T09:12:25.456Z,62.60
2018-01-27T09:13:25.426Z,61.50
2018-01-27T09:14:25.409Z,51.70
2018-01-27T09:15:25.374Z,47.70
2018-01-27T09:16:25.352Z,53.30
2018-01-27T09:17:25.316Z,56.70
2018-01-27T09:18:25.293Z,56.60
2018-01-27T09:19:25.261Z,58.60
2018-01-27T09:20:25.236Z,56.10
2018-01-27T09:21:25.194Z,57.50
2018-01-27T09:22:25.168Z,62.80
2018-01-27T09:23:25.139Z,64.30
2018-01-27T09:24:25.119Z,58.90
2018-01-27T09:25:25.082Z,57.80
2018-01-27T09:26:25.056Z,54.10
2018-01-27T09:27:25.024Z,60.90
2018-01-27T09:28:24.999Z,50.90
2018-01-27T09:29:24.973Z,58.20
2018-01-27T09:30:24.940Z,61.60
2018-01-27T09:31:24.914Z,57.60
2018-01-27T09:32:24.874Z,53.90
2018-01-27T09:33:24.859Z,61.00
2018-01-27T09:34:24.828Z,45.60
2018-01-27T09:35:24.794Z,58.20
2018-01-27T09:36:25.070Z,55.90
2018-01-27T09:37:24.740Z,55.80
2018-01-27T09:38:24.707Z,56.30
2018-01-27T09:39:24.680Z,53.40
2018-01-27T09:40:24.654Z,50.60
2018-01-27T09:41:24.643Z,53.20
2018-01-27T09:42:24.602Z,53.20
2018-01-27T09:43:24.566Z,52.20
2018-01-27T09:44:24.536Z,65.50
2018-01-27T09:45:24.514Z,54.00
2018-01-27T09:46:24.486Z,53.20
2018-01-27T09:47:24.459Z,46.10
2018-01-27T09:48:24.423Z,50.70
2018-01-27T09:49:24.403Z,46.10
2018-01-27T09:50:24.372Z,54.20
2018-01-27T09:51:24.346Z,59.40
2018-01-27T09:52:24.312Z,54.60
2018-01-27T09:53:24.283Z,65.00
2018-01-27T09:54:24.250Z,60.00
2018-01-27T09:55:24.272Z,60.90
2018-01-27T09:56:24.206Z,66.60
2018-01-27T09:57:24.172Z,68.60
2018-01-27T09:58:24.156Z,59.80
2018-01-27T09:59:24.119Z,55.60
2018-01-27T10:00:24.098Z,58.80
2018-01-27T10:01:24.065Z,48.20
2018-01-27T10:02:24.033Z,48.00
2018-01-27T10:03:24.005Z,71.70
2018-01-27T10:04:24.326Z,63.60
2018-01-27T10:05:23.940Z,62.20
2018-01-27T10:06:23.919Z,58.90
2018-01-27T10:07:23.889Z,61.30
2018-01-27T10:08:23.862Z,51.80
2018-01-27T10:09:23.830Z,59.50
2018-01-27T10:10:23.815Z,61.50
2018-01-27T10:11:23.776Z,57.10
2018-01-27T10:12:23.755Z,59.10
2018-01-27T10:13:23.726Z,62.70
2018-01-27T10:14:23.696Z,62.20
2018-01-27T10:15:23.665Z,66.80
2018-01-27T10:16:23.643Z,61.10
2018-01-27T10:17:23.629Z,61.70
2018-01-27T10:18:23.586Z,66.20
2018-01-27T10:19:23.558Z,56.60
2018-01-27T10:20:23.531Z,58.40
2018-01-27T10:21:23.501Z,59.30
2018-01-27T10:22:23.829Z,50.90
2018-01-27T10:23:23.441Z,58.80
2018-01-27T10:24:23.411Z,55.70
2018-01-27T10:25:23.379Z,55.20
2018-01-27T10:26:23.357Z,54.40
2018-01-27T10:27:23.328Z,51.60
2018-01-27T10:28:23.305Z,47.70
2018-01-27T10:29:23.308Z,48.70
2018-01-27T10:30:23.239Z,45.90
2018-01-27T10:31:23.215Z,55.00
2018-01-27T10:32:23.189Z,50.80
2018-01-27T10:33:23.166Z,51.70
2018-01-27T10:34:23.137Z,52.30
2018-01-27T10:35:23.109Z,36.40
2018-01-27T10:36:23.078Z,41.60
2018-01-27T10:37:23.062Z,43.50
2018-01-27T10:38:23.073Z,49.90
2018-01-27T10:39:22.996Z,55.20
2018-01-27T10:40:23.268Z,49.20
2018-01-27T10:41:22.936Z,40.00
2018-01-27T10:42:22.904Z,42.80
2018-01-27T10:43:22.877Z,43.40
2018-01-27T10:44:22.863Z,42.90
2018-01-27T10:45:22.825Z,42.90
2018-01-27T10:46:22.795Z,41.10
2018-01-27T10:47:22.770Z,34.20
2018-01-27T10:48:22.742Z,29.70
2018-01-27T10:49:22.717Z,32.60
2018-01-27T10:50:22.689Z,33.70
2018-01-27T10:51:22.657Z,32.70
2018-01-27T10:52:22.630Z,35.90
2018-01-27T10:53:22.601Z,35.10
2018-01-27T10:54:22.579Z,40.60
2018-01-27T10:55:22.549Z,36.90
2018-01-27T10:56:22.523Z,30.40
2018-01-27T10:57:22.494Z,28.70
2018-01-27T10:58:22.470Z,31.60
2018-01-27T10:59:22.436Z,42.30
2018-01-27T11:00:22.414Z,27.60
2018-01-27T11:01:22.388Z,30.00
2018-01-27T11:02:22.351Z,40.60
2018-01-27T11:03:22.336Z,35.80
2018-01-27T11:04:22.323Z,42.00
2018-01-27T11:05:22.277Z,37.70
2018-01-27T11:06:22.251Z,32.70
2018-01-27T11:07:22.223Z,30.90
2018-01-27T11:08:22.189Z,42.10
2018-01-27T11:09:22.163Z,39.20
2018-01-27T11:10:22.144Z,33.20
2018-01-27T11:11:22.115Z,35.60
2018-01-27T11:12:22.083Z,50.80
2018-01-27T11:13:22.055Z,41.40
2018-01-27T11:14:22.035Z,35.80
2018-01-27T11:15:22.309Z,36.70
2018-01-27T11:16:21.980Z,38.60
2018-01-27T11:17:21.958Z,33.20
2018-01-27T11:18:21.920Z,34.90
2018-01-27T11:19:21.893Z,36.70
2018-01-27T11:20:21.871Z,36.80
2018-01-27T11:21:21.843Z,29.90
2018-01-27T11:22:21.821Z,26.30
2018-01-27T11:23:21.788Z,27.40
2018-01-27T11:24:21.755Z,32.00
2018-01-27T11:25:21.732Z,29.90
2018-01-27T11:26:21.698Z,28.90
2018-01-27T11:27:21.670Z,35.40
2018-01-27T11:28:21.654Z,33.50
2018-01-27T11:29:21.619Z,29.10
2018-01-27T11:30:21.603Z,28.70
2018-01-27T11:31:21.573Z,32.20
2018-01-27T11:32:21.536Z,40.70
2018-01-27T11:33:21.509Z,33.40
2018-01-27T11:34:21.486Z,31.40
2018-01-27T11:35:21.454Z,44.90
2018-01-27T11:36:21.421Z,44.90
2018-01-27T11:37:21.393Z,35.00
2018-01-27T11:38:21.382Z,32.10
2018-01-27T11:39:21.345Z,29.80
2018-01-27T11:40:21.323Z,37.40
2018-01-27T11:41:21.289Z,30.50
2018-01-27T11:42:21.256Z,44.60
2018-01-27T11:43:21.228Z,42.60
2018-01-27T11:44:21.202Z,46.20
2018-01-27T11:45:21.181Z,40.90
2018-01-27T11:46:21.157Z,43.30
2018-01-27T11:47:21.122Z,38.50
2018-01-27T11:48:21.085Z,46.90
2018-01-27T11:49:21.057Z,31.70
2018-01-27T11:50:21.050Z,44.70
2018-01-27T11:51:21.013Z,31.60
2018-01-27T11:52:20.976Z,39.20
2018-01-27T11:53:20.984Z,40.60
2018-01-27T11:54:20.920Z,37.10
2018-01-27T11:55:20.887Z,51.80
2018-01-27T11:56:20.867Z,47.90
2018-01-27T11:57:20.838Z,36.00
2018-01-27T11:58:20.807Z,29.20
2018-01-27T11:59:20.785Z,45.50
2018-01-27T12:00:20.754Z,49.40
2018-01-27T12:01:20.740Z,42.90
2018-01-27T12:02:20.703Z,41.10
2018-01-27T12:03:20.671Z,42.40
2018-01-27T12:04:20.639Z,45.10
2018-01-27T12:05:20.612Z,39.00
2018-01-27T12:06:20.597Z,42.10
2018-01-27T12:07:20.590Z,48.00
2018-01-27T12:08:20.521Z,53.50
2018-01-27T12:09:20.495Z,41.40
2018-01-27T12:10:20.473Z,47.70
2018-01-27T12:11:20.441Z,38.90
2018-01-27T12:12:20.415Z,32.20
2018-01-27T12:13:20.391Z,38.70
2018-01-27T12:14:20.356Z,33.80
2018-01-27T12:15:20.330Z,31.90
2018-01-27T12:16:20.318Z,43.10
2018-01-27T12:17:20.283Z,41.30
2018-01-27T12:18:20.252Z,42.00
2018-01-27T12:19:20.226Z,37.90
2018-01-27T12:20:20.187Z,34.20
2018-01-27T12:21:20.159Z,38.20
2018-01-27T12:22:20.136Z,46.90
2018-01-27T12:23:20.116Z,38.40
2018-01-27T12:24:20.074Z,35.70
2018-01-27T12:25:20.051Z,41.10
2018-01-27T12:26:20.021Z,35.70
2018-01-27T12:27:19.989Z,47.90
2018-01-27T12:28:19.968Z,48.50
2018-01-27T12:29:19.943Z,41.20
2018-01-27T12:30:19.906Z,35.70
2018-01-27T12:31:19.888Z,41.10
2018-01-27T12:32:19.851Z,41.70
2018-01-27T12:33:19.825Z,35.90
2018-01-27T12:34:19.802Z,40.30
2018-01-27T12:35:19.775Z,41.10
2018-01-27T12:36:19.736Z,40.90
2018-01-27T12:37:19.722Z,54.00
2018-01-27T12:38:19.690Z,39.20
2018-01-27T12:39:19.663Z,40.20
2018-01-27T12:40:19.624Z,42.30
2018-01-27T12:41:19.595Z,36.50
2018-01-27T12:42:19.573Z,38.80
2018-01-27T12:43:19.549Z,33.60
2018-01-27T12:44:19.518Z,38.40
2018-01-27T12:45:19.497Z,40.30
2018-01-27T12:46:19.453Z,53.70
2018-01-27T12:47:19.432Z,37.00
2018-01-27T12:48:19.404Z,38.90